METAR 2014/10/21 :

EPMO 23:30: METAR EPMO 212330Z NIL= EPMO 23:00: METAR EPMO 212300Z 13008KT CAVOK 11/10 Q1002=

TAF 2014/10/21 :

EPMO 23:00: TAF EPMO 212300Z NIL= EPMO 22:56: TAF AMD EPMO 212256Z 2121/2206 CNL=

Pogoda ogólna dla Polski